sensor_id;sensor_type;location;lat;lon;timestamp;pressure;altitude;pressure_sealevel;temperature;humidity
12172;BME280;6149;52.418;13.668;2022-10-16T00:01:30;100713.69;;;12.37;100.00
12172;BME280;6149;52.418;13.668;2022-10-16T00:03:58;100705.97;;;12.49;100.00
12172;BME280;6149;52.418;13.668;2022-10-16T00:06:28;100716.97;;;12.57;100.00
12172;BME280;6149;52.418;13.668;2022-10-16T00:08:58;100711.88;;;12.68;100.00
12172;BME280;6149;52.418;13.668;2022-10-16T00:11:28;100719.38;;;12.76;100.00
12172;BME280;6149;52.418;13.668;2022-10-16T00:13:57;100724.31;;;12.82;100.00
12172;BME280;6149;52.418;13.668;2022-10-16T00:16:27;100732.19;;;12.83;100.00
12172;BME280;6149;52.418;13.668;2022-10-16T00:18:54;100739.09;;;12.86;100.00
12172;BME280;6149;52.418;13.668;2022-10-16T00:21:25;100724.78;;;12.88;100.00
12172;BME280;6149;52.418;13.668;2022-10-16T00:23:55;100733.34;;;12.93;100.00
12172;BME280;6149;52.418;13.668;2022-10-16T00:26:27;100731.03;;;13.01;100.00
12172;BME280;6149;52.418;13.668;2022-10-16T00:28:55;100734.38;;;13.05;100.00
12172;BME280;6149;52.418;13.668;2022-10-16T00:31:23;100729.72;;;13.09;100.00
12172;BME280;6149;52.418;13.668;2022-10-16T00:33:50;100743.47;;;13.15;100.00
12172;BME280;6149;52.418;13.668;2022-10-16T00:36:20;100742.38;;;13.19;100.00
12172;BME280;6149;52.418;13.668;2022-10-16T00:38:50;100746.56;;;13.23;100.00
12172;BME280;6149;52.418;13.668;2022-10-16T00:41:21;100748.94;;;13.28;100.00
12172;BME280;6149;52.418;13.668;2022-10-16T00:43:52;100750.63;;;13.29;100.00
12172;BME280;6149;52.418;13.668;2022-10-16T00:46:21;100751.22;;;13.34;100.00
12172;BME280;6149;52.418;13.668;2022-10-16T00:48:54;100754.31;;;13.41;100.00
12172;BME280;6149;52.418;13.668;2022-10-16T00:51:31;100744.34;;;13.44;100.00
12172;BME280;6149;52.418;13.668;2022-10-16T00:54:00;100734.19;;;13.51;100.00
12172;BME280;6149;52.418;13.668;2022-10-16T00:56:31;100741.78;;;13.57;100.00
12172;BME280;6149;52.418;13.668;2022-10-16T00:58:59;100743.41;;;13.59;100.00
12172;BME280;6149;52.418;13.668;2022-10-16T01:01:29;100751.09;;;13.64;100.00
12172;BME280;6149;52.418;13.668;2022-10-16T01:03:55;100752.78;;;13.65;100.00
12172;BME280;6149;52.418;13.668;2022-10-16T01:06:27;100748.22;;;13.67;100.00
12172;BME280;6149;52.418;13.668;2022-10-16T01:09:08;100751.75;;;13.67;100.00
12172;BME280;6149;52.418;13.668;2022-10-16T01:11:47;100752.69;;;13.66;100.00
12172;BME280;6149;52.418;13.668;2022-10-16T01:14:24;100753.66;;;13.65;100.00
12172;BME280;6149;52.418;13.668;2022-10-16T01:16:59;100750.31;;;13.62;100.00
12172;BME280;6149;52.418;13.668;2022-10-16T01:19:44;100756.69;;;13.59;100.00
12172;BME280;6149;52.418;13.668;2022-10-16T01:22:23;100744.34;;;13.58;100.00
12172;BME280;6149;52.418;13.668;2022-10-16T01:24:54;100750.63;;;13.57;100.00
12172;BME280;6149;52.418;13.668;2022-10-16T01:27:25;100752.22;;;13.60;100.00
12172;BME280;6149;52.418;13.668;2022-10-16T01:29:54;100760.28;;;13.58;100.00
12172;BME280;6149;52.418;13.668;2022-10-16T01:32:30;100757.91;;;13.54;100.00
12172;BME280;6149;52.418;13.668;2022-10-16T01:35:05;100770.63;;;13.49;100.00
12172;BME280;6149;52.418;13.668;2022-10-16T01:37:39;100773.56;;;13.44;100.00
12172;BME280;6149;52.418;13.668;2022-10-16T01:40:13;100780.13;;;13.38;100.00
12172;BME280;6149;52.418;13.668;2022-10-16T01:42:49;100775.97;;;13.34;100.00
12172;BME280;6149;52.418;13.668;2022-10-16T01:45:20;100771.59;;;13.33;100.00
12172;BME280;6149;52.418;13.668;2022-10-16T01:47:53;100779.38;;;13.36;100.00
12172;BME280;6149;52.418;13.668;2022-10-16T01:50:21;100781.06;;;13.37;100.00
12172;BME280;6149;52.418;13.668;2022-10-16T01:52:52;100782.78;;;13.38;100.00
12172;BME280;6149;52.418;13.668;2022-10-16T01:55:25;100783.53;;;13.41;100.00
12172;BME280;6149;52.418;13.668;2022-10-16T01:57:59;100781.44;;;13.46;100.00
12172;BME280;6149;52.418;13.668;2022-10-16T02:00:29;100779.75;;;13.45;100.00
12172;BME280;6149;52.418;13.668;2022-10-16T02:03:01;100788.56;;;13.45;100.00
12172;BME280;6149;52.418;13.668;2022-10-16T02:05:32;100792.16;;;13.44;100.00
12172;BME280;6149;52.418;13.668;2022-10-16T02:08:04;100795.78;;;13.43;100.00
12172;BME280;6149;52.418;13.668;2022-10-16T02:10:35;100799.28;;;13.44;100.00
12172;BME280;6149;52.418;13.668;2022-10-16T02:13:07;100802.03;;;13.42;100.00
12172;BME280;6149;52.418;13.668;2022-10-16T02:15:38;100798.53;;;13.42;100.00
12172;BME280;6149;52.418;13.668;2022-10-16T02:18:07;100803.56;;;13.46;100.00
12172;BME280;6149;52.418;13.668;2022-10-16T02:20:41;100806.13;;;13.48;100.00
12172;BME280;6149;52.418;13.668;2022-10-16T02:23:19;100807.72;;;13.50;100.00
12172;BME280;6149;52.418;13.668;2022-10-16T02:25:54;100810.97;;;13.55;100.00
12172;BME280;6149;52.418;13.668;2022-10-16T02:28:28;100804.69;;;13.56;100.00
12172;BME280;6149;52.418;13.668;2022-10-16T02:31:03;100811.63;;;13.59;100.00
12172;BME280;6149;52.418;13.668;2022-10-16T02:33:34;100808.03;;;13.60;100.00
12172;BME280;6149;52.418;13.668;2022-10-16T02:36:04;100798.91;;;13.64;100.00
12172;BME280;6149;52.418;13.668;2022-10-16T02:38:31;100790.84;;;13.65;100.00
12172;BME280;6149;52.418;13.668;2022-10-16T02:40:59;100783.63;;;13.67;100.00
12172;BME280;6149;52.418;13.668;2022-10-16T02:43:30;100787.91;;;13.70;100.00
12172;BME280;6149;52.418;13.668;2022-10-16T02:45:58;100801.28;;;13.68;100.00
12172;BME280;6149;52.418;13.668;2022-10-16T02:48:26;100800.63;;;13.65;100.00
12172;BME280;6149;52.418;13.668;2022-10-16T02:50:56;100813.06;;;13.64;100.00
12172;BME280;6149;52.418;13.668;2022-10-16T02:53:24;100804.13;;;13.65;100.00
12172;BME280;6149;52.418;13.668;2022-10-16T02:55:51;100811.16;;;13.66;100.00
12172;BME280;6149;52.418;13.668;2022-10-16T02:58:19;100814.47;;;13.70;100.00
12172;BME280;6149;52.418;13.668;2022-10-16T03:00:49;100817.03;;;13.71;100.00
12172;BME280;6149;52.418;13.668;2022-10-16T03:03:17;100812.34;;;13.75;100.00
12172;BME280;6149;52.418;13.668;2022-10-16T03:05:47;100824.59;;;13.78;100.00
12172;BME280;6149;52.418;13.668;2022-10-16T03:08:15;100823.66;;;13.79;100.00
12172;BME280;6149;52.418;13.668;2022-10-16T03:10:44;100823.66;;;13.79;100.00
12172;BME280;6149;52.418;13.668;2022-10-16T03:13:12;100834.09;;;13.82;100.00
12172;BME280;6149;52.418;13.668;2022-10-16T03:15:41;100834.09;;;13.82;100.00
12172;BME280;6149;52.418;13.668;2022-10-16T03:18:10;100836.75;;;13.82;100.00
12172;BME280;6149;52.418;13.668;2022-10-16T03:20:36;100841.13;;;13.83;100.00
12172;BME280;6149;52.418;13.668;2022-10-16T03:23:06;100850.03;;;13.82;100.00
12172;BME280;6149;52.418;13.668;2022-10-16T03:25:35;100852.69;;;13.82;100.00
12172;BME280;6149;52.418;13.668;2022-10-16T03:28:03;100846.63;;;13.80;100.00
12172;BME280;6149;52.418;13.668;2022-10-16T03:30:31;100841.31;;;13.80;100.00
12172;BME280;6149;52.418;13.668;2022-10-16T03:32:59;100832.56;;;13.78;100.00
12172;BME280;6149;52.418;13.668;2022-10-16T03:35:27;100830.78;;;13.78;100.00
12172;BME280;6149;52.418;13.668;2022-10-16T03:37:56;100838.94;;;13.75;100.00
12172;BME280;6149;52.418;13.668;2022-10-16T03:40:24;100847.97;;;13.73;100.00
12172;BME280;6149;52.418;13.668;2022-10-16T03:42:51;100848.94;;;13.71;100.00
12172;BME280;6149;52.418;13.668;2022-10-16T03:45:20;100856.16;;;13.69;100.00
12172;BME280;6149;52.418;13.668;2022-10-16T03:47:47;100855.28;;;13.69;100.00
12172;BME280;6149;52.418;13.668;2022-10-16T03:50:14;100863.34;;;13.67;100.00
12172;BME280;6149;52.418;13.668;2022-10-16T03:52:43;100869.53;;;13.68;100.00
12172;BME280;6149;52.418;13.668;2022-10-16T03:55:09;100875.03;;;13.65;100.00
12172;BME280;6149;52.418;13.668;2022-10-16T03:57:37;100883.09;;;13.63;100.00
12172;BME280;6149;52.418;13.668;2022-10-16T04:00:05;100881.47;;;13.61;100.00
12172;BME280;6149;52.418;13.668;2022-10-16T04:02:33;100877.09;;;13.60;100.00
12172;BME280;6149;52.418;13.668;2022-10-16T04:05:00;100883.38;;;13.59;100.00
12172;BME280;6149;52.418;13.668;2022-10-16T04:07:27;100886.22;;;13.56;100.00
12172;BME280;6149;52.418;13.668;2022-10-16T04:09:56;100887.16;;;13.55;100.00
12172;BME280;6149;52.418;13.668;2022-10-16T04:12:25;100883.66;;;13.54;100.00
12172;BME280;6149;52.418;13.668;2022-10-16T04:14:52;100895.97;;;13.55;100.00
12172;BME280;6149;52.418;13.668;2022-10-16T04:17:20;100898.72;;;13.54;100.00
12172;BME280;6149;52.418;13.668;2022-10-16T04:19:46;100901.28;;;13.55;100.00
12172;BME280;6149;52.418;13.668;2022-10-16T04:22:14;100900.53;;;13.53;100.00
12172;BME280;6149;52.418;13.668;2022-10-16T04:24:40;100911.16;;;13.53;100.00
12172;BME280;6149;52.418;13.668;2022-10-16T04:27:10;100905.75;;;13.55;100.00
12172;BME280;6149;52.418;13.668;2022-10-16T04:29:36;100906.53;;;13.57;100.00
12172;BME280;6149;52.418;13.668;2022-10-16T04:32:03;100906.44;;;13.58;100.00
12172;BME280;6149;52.418;13.668;2022-10-16T04:34:31;100905.56;;;13.58;100.00
12172;BME280;6149;52.418;13.668;2022-10-16T04:36:59;100913.44;;;13.59;100.00
12172;BME280;6149;52.418;13.668;2022-10-16T04:39:25;100914.41;;;13.58;100.00
12172;BME280;6149;52.418;13.668;2022-10-16T04:41:53;100895.81;;;13.58;100.00
12172;BME280;6149;52.418;13.668;2022-10-16T04:44:22;100901.03;;;13.60;100.00
12172;BME280;6149;52.418;13.668;2022-10-16T04:46:50;100878.81;;;13.61;100.00
12172;BME280;6149;52.418;13.668;2022-10-16T04:49:18;100896.56;;;13.60;100.00
12172;BME280;6149;52.418;13.668;2022-10-16T04:51:46;100890.50;;;13.58;100.00
12172;BME280;6149;52.418;13.668;2022-10-16T04:54:14;100886.97;;;13.58;100.00
12172;BME280;6149;52.418;13.668;2022-10-16T04:56:42;100889.72;;;13.56;100.00
12172;BME280;6149;52.418;13.668;2022-10-16T04:59:14;100890.56;;;13.57;100.00
12172;BME280;6149;52.418;13.668;2022-10-16T05:01:43;100901.28;;;13.55;100.00
12172;BME280;6149;52.418;13.668;2022-10-16T05:04:12;100904.13;;;13.52;100.00
12172;BME280;6149;52.418;13.668;2022-10-16T05:06:42;100895.59;;;13.47;100.00
12172;BME280;6149;52.418;13.668;2022-10-16T05:09:10;100892.34;;;13.42;100.00
12172;BME280;6149;52.418;13.668;2022-10-16T05:11:37;100896.13;;;13.38;100.00
12172;BME280;6149;52.418;13.668;2022-10-16T05:14:07;100892.06;;;13.32;100.00
12172;BME280;6149;52.418;13.668;2022-10-16T05:16:35;100913.50;;;13.29;100.00
12172;BME280;6149;52.418;13.668;2022-10-16T05:19:05;100917.38;;;13.24;100.00
12172;BME280;6149;52.418;13.668;2022-10-16T05:21:33;100922.09;;;13.19;100.00
12172;BME280;6149;52.418;13.668;2022-10-16T05:24:01;100932.09;;;13.14;100.00
12172;BME280;6149;52.418;13.668;2022-10-16T05:26:29;100942.03;;;13.10;100.00
12172;BME280;6149;52.418;13.668;2022-10-16T05:28:57;100944.88;;;13.07;100.00
12172;BME280;6149;52.418;13.668;2022-10-16T05:31:24;100945.91;;;13.04;100.00
12172;BME280;6149;52.418;13.668;2022-10-16T05:33:58;100953.88;;;13.04;100.00
12172;BME280;6149;52.418;13.668;2022-10-16T05:36:27;100949.31;;;13.06;100.00
12172;BME280;6149;52.418;13.668;2022-10-16T05:38:55;100939.47;;;13.09;100.00
12172;BME280;6149;52.418;13.668;2022-10-16T05:41:24;100928.75;;;13.10;100.00
12172;BME280;6149;52.418;13.668;2022-10-16T05:43:52;100928.00;;;13.08;100.00
12172;BME280;6149;52.418;13.668;2022-10-16T05:46:20;100928.84;;;13.09;100.00
12172;BME280;6149;52.418;13.668;2022-10-16T05:48:51;100924.56;;;13.06;100.00
12172;BME280;6149;52.418;13.668;2022-10-16T05:51:19;100929.13;;;13.04;100.00
12172;BME280;6149;52.418;13.668;2022-10-16T05:53:49;100936.31;;;13.02;100.00
12172;BME280;6149;52.418;13.668;2022-10-16T05:56:20;100941.81;;;12.99;100.00
12172;BME280;6149;52.418;13.668;2022-10-16T05:58:47;100951.75;;;12.95;100.00
12172;BME280;6149;52.418;13.668;2022-10-16T06:01:16;100950.91;;;12.95;100.00
12172;BME280;6149;52.418;13.668;2022-10-16T06:03:54;100961.53;;;12.95;100.00
12172;BME280;6149;52.418;13.668;2022-10-16T06:06:24;100953.56;;;12.95;100.00
12172;BME280;6149;52.418;13.668;2022-10-16T06:08:55;100948.25;;;12.95;100.00
12172;BME280;6149;52.418;13.668;2022-10-16T06:11:26;100951.75;;;12.95;100.00
12172;BME280;6149;52.418;13.668;2022-10-16T06:13:57;100953.47;;;12.96;100.00
12172;BME280;6149;52.418;13.668;2022-10-16T06:16:28;100955.28;;;12.96;100.00
12172;BME280;6149;52.418;13.668;2022-10-16T06:18:59;100952.63;;;12.96;100.00
12172;BME280;6149;52.418;13.668;2022-10-16T06:21:38;100963.16;;;12.97;100.00
12172;BME280;6149;52.418;13.668;2022-10-16T06:24:08;100964.84;;;12.98;100.00
12172;BME280;6149;52.418;13.668;2022-10-16T06:26:37;100965.59;;;13.00;100.00
12172;BME280;6149;52.418;13.668;2022-10-16T06:29:05;100966.38;;;13.02;100.00
12172;BME280;6149;52.418;13.668;2022-10-16T06:31:34;100971.41;;;13.07;100.00
12172;BME280;6149;52.418;13.668;2022-10-16T06:34:02;100966.78;;;13.11;100.00
12172;BME280;6149;52.418;13.668;2022-10-16T06:36:36;100972.72;;;13.16;100.00
12172;BME280;6149;52.418;13.668;2022-10-16T06:39:03;100975.13;;;13.20;100.00
12172;BME280;6149;52.418;13.668;2022-10-16T06:41:35;100972.19;;;13.25;100.00
12172;BME280;6149;52.418;13.668;2022-10-16T06:44:05;100966.53;;;13.31;100.00
12172;BME280;6149;52.418;13.668;2022-10-16T06:46:34;100967.13;;;13.36;100.00
12172;BME280;6149;52.418;13.668;2022-10-16T06:49:00;100980.97;;;13.41;100.00
12172;BME280;6149;52.418;13.668;2022-10-16T06:51:29;100977.28;;;13.44;100.00
12172;BME280;6149;52.418;13.668;2022-10-16T06:53:57;100988.56;;;13.47;100.00
12172;BME280;6149;52.418;13.668;2022-10-16T06:56:27;100999.69;;;13.54;100.00
12172;BME280;6149;52.418;13.668;2022-10-16T06:58:58;101005.50;;;13.60;100.00
12172;BME280;6149;52.418;13.668;2022-10-16T07:01:27;101013.03;;;13.68;100.00
12172;BME280;6149;52.418;13.668;2022-10-16T07:03:54;101011.91;;;13.72;100.00
12172;BME280;6149;52.418;13.668;2022-10-16T07:06:24;101015.03;;;13.79;100.00
12172;BME280;6149;52.418;13.668;2022-10-16T07:08:53;101015.63;;;13.84;100.00
12172;BME280;6149;52.418;13.668;2022-10-16T07:11:21;101016.09;;;13.90;100.00
12172;BME280;6149;52.418;13.668;2022-10-16T07:13:51;101014.88;;;13.96;100.00
12172;BME280;6149;52.418;13.668;2022-10-16T07:16:20;101019.75;;;14.03;100.00
12172;BME280;6149;52.418;13.668;2022-10-16T07:18:49;101020.09;;;14.12;100.00
12172;BME280;6149;52.418;13.668;2022-10-16T07:21:18;101028.38;;;14.21;100.00
12172;BME280;6149;52.418;13.668;2022-10-16T07:23:50;101043.69;;;14.32;100.00
12172;BME280;6149;52.418;13.668;2022-10-16T07:26:16;101042.97;;;14.44;100.00
12172;BME280;6149;52.418;13.668;2022-10-16T07:28:45;101035.25;;;14.54;100.00
12172;BME280;6149;52.418;13.668;2022-10-16T07:31:15;101031.81;;;14.66;100.00
12172;BME280;6149;52.418;13.668;2022-10-16T07:33:45;101025.81;;;14.77;100.00
12172;BME280;6149;52.418;13.668;2022-10-16T07:36:14;101028.63;;;14.88;100.00
12172;BME280;6149;52.418;13.668;2022-10-16T07:38:43;101035.75;;;15.01;100.00
12172;BME280;6149;52.418;13.668;2022-10-16T07:41:11;101038.47;;;15.14;100.00
12172;BME280;6149;52.418;13.668;2022-10-16T07:43:39;101042.69;;;15.31;100.00
12172;BME280;6149;52.418;13.668;2022-10-16T07:46:07;101037.09;;;15.48;100.00
12172;BME280;6149;52.418;13.668;2022-10-16T07:48:35;101027.88;;;15.66;100.00
12172;BME280;6149;52.418;13.668;2022-10-16T07:51:06;101039.03;;;15.86;100.00
12172;BME280;6149;52.418;13.668;2022-10-16T07:53:34;101030.81;;;16.01;100.00
12172;BME280;6149;52.418;13.668;2022-10-16T07:56:03;101032.84;;;16.11;100.00
12172;BME280;6149;52.418;13.668;2022-10-16T07:58:33;101037.56;;;16.20;100.00
12172;BME280;6149;52.418;13.668;2022-10-16T08:01:05;101043.75;;;16.20;100.00
12172;BME280;6149;52.418;13.668;2022-10-16T08:03:33;101040.22;;;16.20;100.00
12172;BME280;6149;52.418;13.668;2022-10-16T08:06:02;101041.28;;;16.17;100.00
12172;BME280;6149;52.418;13.668;2022-10-16T08:08:32;101025.38;;;16.16;100.00
12172;BME280;6149;52.418;13.668;2022-10-16T08:11:01;101036.91;;;16.16;100.00
12172;BME280;6149;52.418;13.668;2022-10-16T08:13:31;101044.06;;;16.16;100.00
12172;BME280;6149;52.418;13.668;2022-10-16T08:15:59;101045.66;;;16.18;100.00
12172;BME280;6149;52.418;13.668;2022-10-16T08:18:27;101040.13;;;16.21;100.00
12172;BME280;6149;52.418;13.668;2022-10-16T08:20:59;101040.88;;;16.23;100.00
12172;BME280;6149;52.418;13.668;2022-10-16T08:23:30;101051.88;;;16.31;100.00
12172;BME280;6149;52.418;13.668;2022-10-16T08:26:02;101069.03;;;16.40;100.00
12172;BME280;6149;52.418;13.668;2022-10-16T08:28:32;101075.66;;;16.47;100.00
12172;BME280;6149;52.418;13.668;2022-10-16T08:31:10;101064.56;;;16.53;100.00
12172;BME280;6149;52.418;13.668;2022-10-16T08:33:40;101065.94;;;16.59;100.00
12172;BME280;6149;52.418;13.668;2022-10-16T08:36:12;101070.03;;;16.64;100.00
12172;BME280;6149;52.418;13.668;2022-10-16T08:38:41;101073.09;;;16.71;100.00
12172;BME280;6149;52.418;13.668;2022-10-16T08:41:21;101060.91;;;16.80;100.00
12172;BME280;6149;52.418;13.668;2022-10-16T08:44:13;101061.63;;;16.94;100.00
12172;BME280;6149;52.418;13.668;2022-10-16T08:47:12;101084.16;;;17.03;100.00
12172;BME280;6149;52.418;13.668;2022-10-16T08:49:41;101075.22;;;17.15;100.00
12172;BME280;6149;52.418;13.668;2022-10-16T08:52:11;101071.03;;;17.24;100.00
12172;BME280;6149;52.418;13.668;2022-10-16T08:54:43;101067.06;;;17.29;100.00
12172;BME280;6149;52.418;13.668;2022-10-16T08:57:16;101060.41;;;17.35;100.00
12172;BME280;6149;52.418;13.668;2022-10-16T08:59:46;101061.19;;;17.48;100.00
12172;BME280;6149;52.418;13.668;2022-10-16T09:02:24;101075.53;;;17.47;100.00
12172;BME280;6149;52.418;13.668;2022-10-16T09:05:21;101082.34;;;17.51;100.00
12172;BME280;6149;52.418;13.668;2022-10-16T09:08:01;101085.03;;;17.51;100.00
12172;BME280;6149;52.418;13.668;2022-10-16T09:10:39;101084.50;;;17.46;100.00
12172;BME280;6149;52.418;13.668;2022-10-16T09:13:19;101087.19;;;17.46;100.00
12172;BME280;6149;52.418;13.668;2022-10-16T09:15:55;101090.13;;;17.43;100.00
12172;BME280;6149;52.418;13.668;2022-10-16T09:18:34;101091.69;;;17.46;100.00
12172;BME280;6149;52.418;13.668;2022-10-16T09:21:10;101096.25;;;17.56;100.00
12172;BME280;6149;52.418;13.668;2022-10-16T09:23:43;101112.06;;;17.59;100.00
12172;BME280;6149;52.418;13.668;2022-10-16T09:26:13;101102.09;;;17.61;100.00
12172;BME280;6149;52.418;13.668;2022-10-16T09:28:42;101098.47;;;17.62;100.00
12172;BME280;6149;52.418;13.668;2022-10-16T09:31:15;101106.25;;;17.78;100.00
12172;BME280;6149;52.418;13.668;2022-10-16T09:33:48;101103.19;;;17.83;100.00
12172;BME280;6149;52.418;13.668;2022-10-16T09:36:20;101106.38;;;17.88;100.00
12172;BME280;6149;52.418;13.668;2022-10-16T09:38:49;101107.72;;;17.93;100.00
12172;BME280;6149;52.418;13.668;2022-10-16T09:41:20;101103.28;;;18.05;100.00
12172;BME280;6149;52.418;13.668;2022-10-16T09:43:52;101110.00;;;18.11;100.00
12172;BME280;6149;52.418;13.668;2022-10-16T09:46:28;101109.88;;;18.23;100.00
12172;BME280;6149;52.418;13.668;2022-10-16T09:48:58;101107.47;;;18.31;98.97
12172;BME280;6149;52.418;13.668;2022-10-16T09:51:28;101117.44;;;18.29;98.53
12172;BME280;6149;52.418;13.668;2022-10-16T09:53:59;101131.81;;;18.28;98.78
12172;BME280;6149;52.418;13.668;2022-10-16T09:56:30;101139.09;;;18.26;99.22
12172;BME280;6149;52.418;13.668;2022-10-16T09:59:01;101134.88;;;18.35;97.99
12172;BME280;6149;52.418;13.668;2022-10-16T10:01:36;101126.25;;;18.43;98.63
12172;BME280;6149;52.418;13.668;2022-10-16T10:04:07;101127.59;;;18.48;98.95
12172;BME280;6149;52.418;13.668;2022-10-16T10:06:37;101134.78;;;18.48;97.80
12172;BME280;6149;52.418;13.668;2022-10-16T10:09:17;101137.06;;;18.41;97.28
12172;BME280;6149;52.418;13.668;2022-10-16T10:11:53;101141.34;;;18.44;97.58
12172;BME280;6149;52.418;13.668;2022-10-16T10:14:26;101150.38;;;18.54;97.20
12172;BME280;6149;52.418;13.668;2022-10-16T10:17:12;101148.56;;;18.54;97.54
12172;BME280;6149;52.418;13.668;2022-10-16T10:19:42;101157.31;;;18.56;96.14
12172;BME280;6149;52.418;13.668;2022-10-16T10:22:19;101159.16;;;18.56;94.76
12172;BME280;6149;52.418;13.668;2022-10-16T10:24:56;101152.59;;;18.60;96.10
12172;BME280;6149;52.418;13.668;2022-10-16T10:27:35;101148.97;;;18.72;95.86
12172;BME280;6149;52.418;13.668;2022-10-16T10:30:10;101156.75;;;18.75;95.87
12172;BME280;6149;52.418;13.668;2022-10-16T10:32:49;101155.06;;;18.85;93.38
12172;BME280;6149;52.418;13.668;2022-10-16T10:35:26;101158.59;;;18.86;92.85
12172;BME280;6149;52.418;13.668;2022-10-16T10:38:07;101159.09;;;18.91;94.64
12172;BME280;6149;52.418;13.668;2022-10-16T10:40:50;101153.09;;;18.98;92.39
12172;BME280;6149;52.418;13.668;2022-10-16T10:43:32;101159.81;;;18.93;90.68
12172;BME280;6149;52.418;13.668;2022-10-16T10:46:08;101164.66;;;18.99;91.81
12172;BME280;6149;52.418;13.668;2022-10-16T10:48:56;101168.81;;;19.03;89.32
12172;BME280;6149;52.418;13.668;2022-10-16T10:51:40;101164.56;;;19.00;89.88
12172;BME280;6149;52.418;13.668;2022-10-16T10:54:19;101160.78;;;19.03;88.93
12172;BME280;6149;52.418;13.668;2022-10-16T10:56:55;101175.41;;;18.99;88.04
12172;BME280;6149;52.418;13.668;2022-10-16T10:59:40;101174.91;;;18.94;88.33
12172;BME280;6149;52.418;13.668;2022-10-16T11:02:22;101173.94;;;18.95;88.28
12172;BME280;6149;52.418;13.668;2022-10-16T11:05:04;101175.06;;;18.92;88.03
12172;BME280;6149;52.418;13.668;2022-10-16T11:07:45;101174.78;;;18.95;87.47
12172;BME280;6149;52.418;13.668;2022-10-16T11:10:20;101187.00;;;18.88;87.11
12172;BME280;6149;52.418;13.668;2022-10-16T11:12:50;101178.22;;;18.86;86.25
12172;BME280;6149;52.418;13.668;2022-10-16T11:15:25;101179.66;;;18.79;85.90
12172;BME280;6149;52.418;13.668;2022-10-16T11:18:00;101174.31;;;18.79;86.12
12172;BME280;6149;52.418;13.668;2022-10-16T11:20:35;101185.63;;;18.83;85.81
12172;BME280;6149;52.418;13.668;2022-10-16T11:23:11;101183.69;;;18.85;85.88
12172;BME280;6149;52.418;13.668;2022-10-16T11:25:45;101193.44;;;18.97;84.03
12172;BME280;6149;52.418;13.668;2022-10-16T11:28:16;101186.13;;;18.99;84.46
12172;BME280;6149;52.418;13.668;2022-10-16T11:30:51;101187.34;;;19.06;82.35
12172;BME280;6149;52.418;13.668;2022-10-16T11:33:27;101196.59;;;19.02;83.80
12172;BME280;6149;52.418;13.668;2022-10-16T11:36:03;101186.00;;;19.12;83.93
12172;BME280;6149;52.418;13.668;2022-10-16T11:38:41;101187.84;;;19.22;82.39
12172;BME280;6149;52.418;13.668;2022-10-16T11:41:20;101181.09;;;19.39;81.58
12172;BME280;6149;52.418;13.668;2022-10-16T11:43:58;101189.63;;;19.44;81.04
12172;BME280;6149;52.418;13.668;2022-10-16T11:46:37;101186.84;;;19.46;80.66
12172;BME280;6149;52.418;13.668;2022-10-16T11:49:10;101184.28;;;19.44;79.44
12172;BME280;6149;52.418;13.668;2022-10-16T11:51:40;101190.38;;;19.46;79.45
12172;BME280;6149;52.418;13.668;2022-10-16T11:54:18;101175.72;;;19.50;78.70
12172;BME280;6149;52.418;13.668;2022-10-16T11:56:52;101181.34;;;19.47;78.45
12172;BME280;6149;52.418;13.668;2022-10-16T11:59:26;101198.81;;;19.53;79.23
12172;BME280;6149;52.418;13.668;2022-10-16T12:02:21;101193.81;;;19.59;77.33
12172;BME280;6149;52.418;13.668;2022-10-16T12:05:12;101191.84;;;19.61;76.78
12172;BME280;6149;52.418;13.668;2022-10-16T12:07:51;101203.91;;;19.45;75.55
12172;BME280;6149;52.418;13.668;2022-10-16T12:10:26;101205.47;;;19.47;77.74
12172;BME280;6149;52.418;13.668;2022-10-16T12:12:55;101205.25;;;19.50;75.25
12172;BME280;6149;52.418;13.668;2022-10-16T12:15:25;101199.88;;;19.50;76.01
12172;BME280;6149;52.418;13.668;2022-10-16T12:17:56;101210.41;;;19.53;77.43
12172;BME280;6149;52.418;13.668;2022-10-16T12:20:26;101212.81;;;19.56;75.60
12172;BME280;6149;52.418;13.668;2022-10-16T12:22:59;101211.84;;;19.57;75.57
12172;BME280;6149;52.418;13.668;2022-10-16T12:25:29;101211.13;;;19.55;75.73
12172;BME280;6149;52.418;13.668;2022-10-16T12:28:00;101217.94;;;19.59;76.23
12172;BME280;6149;52.418;13.668;2022-10-16T12:30:30;101219.16;;;19.55;73.35
12172;BME280;6149;52.418;13.668;2022-10-16T12:33:02;101215.13;;;19.50;74.59
12172;BME280;6149;52.418;13.668;2022-10-16T12:35:33;101209.38;;;19.43;74.49
12172;BME280;6149;52.418;13.668;2022-10-16T12:38:16;101215.38;;;19.35;73.50
12172;BME280;6149;52.418;13.668;2022-10-16T12:40:44;101210.72;;;19.37;73.92
12172;BME280;6149;52.418;13.668;2022-10-16T12:43:27;101214.75;;;19.32;73.58
12172;BME280;6149;52.418;13.668;2022-10-16T12:46:21;101220.13;;;19.32;73.30
12172;BME280;6149;52.418;13.668;2022-10-16T12:49:23;101221.81;;;19.33;74.81
12172;BME280;6149;52.418;13.668;2022-10-16T12:51:58;101221.81;;;19.33;73.46
12172;BME280;6149;52.418;13.668;2022-10-16T12:54:28;101228.16;;;19.32;73.99
12172;BME280;6149;52.418;13.668;2022-10-16T12:57:18;101226.59;;;19.29;73.58
12172;BME280;6149;52.418;13.668;2022-10-16T12:59:58;101228.69;;;19.26;73.85
12172;BME280;6149;52.418;13.668;2022-10-16T13:03:15;101234.66;;;19.29;74.51
12172;BME280;6149;52.418;13.668;2022-10-16T13:06:16;101236.56;;;19.38;72.75
12172;BME280;6149;52.418;13.668;2022-10-16T13:09:12;101239.28;;;19.27;73.73